sensor_id;sensor_type;location;lat;lon;timestamp;P1;durP1;ratioP1;P2;durP2;ratioP2
77821;SDS011;67012;53.712;10.728;2023-05-07T08:52:33;4.68;;;3.38;;
77821;SDS011;67012;53.712;10.728;2023-05-07T08:55:00;4.97;;;4.45;;
77821;SDS011;67012;53.712;10.728;2023-05-07T08:57:27;4.32;;;3.78;;
77821;SDS011;67012;53.712;10.728;2023-05-07T08:59:52;6.33;;;3.80;;
77821;SDS011;67012;53.712;10.728;2023-05-07T09:02:18;4.00;;;3.33;;
77821;SDS011;67012;53.712;10.728;2023-05-07T09:04:43;4.00;;;3.27;;
77821;SDS011;67012;53.712;10.728;2023-05-07T09:07:08;4.20;;;3.37;;
77821;SDS011;67012;53.712;10.728;2023-05-07T09:09:33;4.20;;;3.20;;
77821;SDS011;67012;53.712;10.728;2023-05-07T09:11:59;4.80;;;3.03;;
77821;SDS011;67012;53.712;10.728;2023-05-07T09:14:24;4.43;;;3.22;;
77821;SDS011;67012;53.712;10.728;2023-05-07T09:16:51;4.67;;;3.53;;
77821;SDS011;67012;53.712;10.728;2023-05-07T09:19:18;3.85;;;2.92;;
77821;SDS011;67012;53.712;10.728;2023-05-07T09:21:46;3.60;;;3.08;;
77821;SDS011;67012;53.712;10.728;2023-05-07T09:24:12;4.30;;;2.83;;
77821;SDS011;67012;53.712;10.728;2023-05-07T09:26:40;4.63;;;3.28;;
77821;SDS011;67012;53.712;10.728;2023-05-07T09:29:05;3.22;;;2.92;;
77821;SDS011;67012;53.712;10.728;2023-05-07T09:31:31;3.25;;;2.95;;
77821;SDS011;67012;53.712;10.728;2023-05-07T09:33:57;3.40;;;3.10;;
77821;SDS011;67012;53.712;10.728;2023-05-07T09:36:22;4.00;;;2.50;;
77821;SDS011;67012;53.712;10.728;2023-05-07T09:38:47;4.22;;;3.20;;
77821;SDS011;67012;53.712;10.728;2023-05-07T09:41:14;3.20;;;2.85;;
77821;SDS011;67012;53.712;10.728;2023-05-07T09:43:39;3.10;;;2.40;;
77821;SDS011;67012;53.712;10.728;2023-05-07T09:46:09;3.42;;;2.17;;
77821;SDS011;67012;53.712;10.728;2023-05-07T09:48:40;2.75;;;2.30;;
77821;SDS011;67012;53.712;10.728;2023-05-07T09:51:07;3.28;;;2.60;;
77821;SDS011;67012;53.712;10.728;2023-05-07T09:53:33;2.85;;;2.15;;
77821;SDS011;67012;53.712;10.728;2023-05-07T09:55:59;2.35;;;2.15;;
77821;SDS011;67012;53.712;10.728;2023-05-07T09:58:25;4.13;;;2.40;;
77821;SDS011;67012;53.712;10.728;2023-05-07T10:00:51;3.63;;;2.42;;
77821;SDS011;67012;53.712;10.728;2023-05-07T10:03:17;2.58;;;2.25;;
77821;SDS011;67012;53.712;10.728;2023-05-07T10:05:44;3.20;;;2.25;;
77821;SDS011;67012;53.712;10.728;2023-05-07T10:08:09;3.00;;;2.60;;
77821;SDS011;67012;53.712;10.728;2023-05-07T10:10:35;3.95;;;2.30;;
77821;SDS011;67012;53.712;10.728;2023-05-07T10:13:01;2.88;;;2.22;;
77821;SDS011;67012;53.712;10.728;2023-05-07T10:15:27;2.70;;;2.15;;
77821;SDS011;67012;53.712;10.728;2023-05-07T10:17:53;2.58;;;2.17;;
77821;SDS011;67012;53.712;10.728;2023-05-07T10:20:18;2.95;;;2.38;;
77821;SDS011;67012;53.712;10.728;2023-05-07T10:22:44;2.40;;;2.20;;
77821;SDS011;67012;53.712;10.728;2023-05-07T10:25:29;2.20;;;2.00;;
77821;SDS011;67012;53.712;10.728;2023-05-07T10:27:55;2.17;;;2.00;;
77821;SDS011;67012;53.712;10.728;2023-05-07T10:32:50;2.33;;;2.10;;
77821;SDS011;67012;53.712;10.728;2023-05-07T10:35:20;2.63;;;2.38;;
77821;SDS011;67012;53.712;10.728;2023-05-07T10:37:46;2.20;;;2.00;;
77821;SDS011;67012;53.712;10.728;2023-05-07T10:40:12;3.00;;;1.95;;
77821;SDS011;67012;53.712;10.728;2023-05-07T10:42:38;2.47;;;1.70;;
77821;SDS011;67012;53.712;10.728;2023-05-07T10:45:16;2.78;;;2.22;;
77821;SDS011;67012;53.712;10.728;2023-05-07T10:50:39;2.00;;;1.88;;
77821;SDS011;67012;53.712;10.728;2023-05-07T10:56:23;2.10;;;1.77;;
77821;SDS011;67012;53.712;10.728;2023-05-07T10:58:28;2.00;;;1.80;;
77821;SDS011;67012;53.712;10.728;2023-05-07T11:00:57;2.35;;;2.13;;
77821;SDS011;67012;53.712;10.728;2023-05-07T11:03:22;2.78;;;2.05;;
77821;SDS011;67012;53.712;10.728;2023-05-07T11:05:47;3.40;;;1.60;;
77821;SDS011;67012;53.712;10.728;2023-05-07T11:08:52;1.80;;;1.70;;
77821;SDS011;67012;53.712;10.728;2023-05-07T11:11:17;3.25;;;1.77;;
77821;SDS011;67012;53.712;10.728;2023-05-07T11:13:46;2.43;;;2.23;;
77821;SDS011;67012;53.712;10.728;2023-05-07T11:18:47;2.50;;;1.73;;
77821;SDS011;67012;53.712;10.728;2023-05-07T11:21:14;3.40;;;1.67;;
77821;SDS011;67012;53.712;10.728;2023-05-07T11:23:56;1.88;;;1.75;;
77821;SDS011;67012;53.712;10.728;2023-05-07T11:26:22;7.32;;;1.90;;
77821;SDS011;67012;53.712;10.728;2023-05-07T11:28:48;3.08;;;2.00;;
77821;SDS011;67012;53.712;10.728;2023-05-07T11:31:13;2.00;;;1.60;;
77821;SDS011;67012;53.712;10.728;2023-05-07T11:33:38;1.60;;;1.50;;
77821;SDS011;67012;53.712;10.728;2023-05-07T11:36:05;1.50;;;1.40;;
77821;SDS011;67012;53.712;10.728;2023-05-07T11:38:30;2.33;;;1.38;;
77821;SDS011;67012;53.712;10.728;2023-05-07T11:40:59;2.92;;;1.60;;
77821;SDS011;67012;53.712;10.728;2023-05-07T11:43:26;2.10;;;1.77;;
77821;SDS011;67012;53.712;10.728;2023-05-07T11:45:51;1.60;;;1.50;;
77821;SDS011;67012;53.712;10.728;2023-05-07T11:48:16;1.87;;;1.40;;
77821;SDS011;67012;53.712;10.728;2023-05-07T11:53:17;1.63;;;1.52;;
77821;SDS011;67012;53.712;10.728;2023-05-07T11:55:43;1.30;;;1.20;;
77821;SDS011;67012;53.712;10.728;2023-05-07T11:58:09;1.75;;;1.30;;
77821;SDS011;67012;53.712;10.728;2023-05-07T12:00:35;2.50;;;1.40;;
77821;SDS011;67012;53.712;10.728;2023-05-07T12:03:06;2.55;;;1.42;;
77821;SDS011;67012;53.712;10.728;2023-05-07T12:05:31;2.08;;;1.40;;
77821;SDS011;67012;53.712;10.728;2023-05-07T12:07:59;1.33;;;1.23;;
77821;SDS011;67012;53.712;10.728;2023-05-07T12:10:25;1.70;;;1.60;;
77821;SDS011;67012;53.712;10.728;2023-05-07T12:12:50;1.52;;;1.30;;
77821;SDS011;67012;53.712;10.728;2023-05-07T12:15:16;2.00;;;1.20;;
77821;SDS011;67012;53.712;10.728;2023-05-07T12:17:41;1.25;;;1.15;;
77821;SDS011;67012;53.712;10.728;2023-05-07T12:20:07;3.13;;;1.30;;
77821;SDS011;67012;53.712;10.728;2023-05-07T12:22:32;1.38;;;1.20;;
77821;SDS011;67012;53.712;10.728;2023-05-07T12:24:57;1.40;;;1.30;;
77821;SDS011;67012;53.712;10.728;2023-05-07T12:27:23;1.15;;;1.05;;
77821;SDS011;67012;53.712;10.728;2023-05-07T12:29:49;1.92;;;1.30;;
77821;SDS011;67012;53.712;10.728;2023-05-07T12:32:15;1.33;;;1.23;;
77821;SDS011;67012;53.712;10.728;2023-05-07T12:34:41;1.70;;;1.55;;
77821;SDS011;67012;53.712;10.728;2023-05-07T12:37:06;1.50;;;1.40;;
77821;SDS011;67012;53.712;10.728;2023-05-07T12:39:31;2.00;;;1.40;;
77821;SDS011;67012;53.712;10.728;2023-05-07T12:42:00;1.70;;;1.23;;
77821;SDS011;67012;53.712;10.728;2023-05-07T12:44:26;2.00;;;1.33;;
77821;SDS011;67012;53.712;10.728;2023-05-07T12:46:53;1.35;;;1.08;;
77821;SDS011;67012;53.712;10.728;2023-05-07T12:49:19;1.30;;;1.20;;
77821;SDS011;67012;53.712;10.728;2023-05-07T12:51:44;4.50;;;1.67;;
77821;SDS011;67012;53.712;10.728;2023-05-07T12:54:11;1.30;;;1.20;;
77821;SDS011;67012;53.712;10.728;2023-05-07T12:56:36;1.53;;;1.10;;
77821;SDS011;67012;53.712;10.728;2023-05-07T12:59:02;1.30;;;1.20;;
77821;SDS011;67012;53.712;10.728;2023-05-07T13:01:30;3.05;;;1.30;;
77821;SDS011;67012;53.712;10.728;2023-05-07T13:03:57;1.30;;;1.00;;
77821;SDS011;67012;53.712;10.728;2023-05-07T13:06:25;1.48;;;1.08;;
77821;SDS011;67012;53.712;10.728;2023-05-07T13:08:51;2.63;;;1.50;;
77821;SDS011;67012;53.712;10.728;2023-05-07T13:11:16;1.50;;;1.40;;
77821;SDS011;67012;53.712;10.728;2023-05-07T13:13:41;2.13;;;1.07;;
77821;SDS011;67012;53.712;10.728;2023-05-07T13:16:07;2.53;;;1.27;;
77821;SDS011;67012;53.712;10.728;2023-05-07T13:18:33;1.58;;;1.48;;
77821;SDS011;67012;53.712;10.728;2023-05-07T13:20:58;1.30;;;1.20;;
77821;SDS011;67012;53.712;10.728;2023-05-07T13:23:23;1.15;;;1.00;;
77821;SDS011;67012;53.712;10.728;2023-05-07T13:25:49;1.87;;;1.30;;
77821;SDS011;67012;53.712;10.728;2023-05-07T13:28:15;2.47;;;1.17;;
77821;SDS011;67012;53.712;10.728;2023-05-07T13:30:40;2.17;;;1.50;;
77821;SDS011;67012;53.712;10.728;2023-05-07T13:33:05;1.80;;;1.30;;
77821;SDS011;67012;53.712;10.728;2023-05-07T13:35:31;1.50;;;1.27;;
77821;SDS011;67012;53.712;10.728;2023-05-07T13:37:56;2.03;;;1.20;;
77821;SDS011;67012;53.712;10.728;2023-05-07T13:40:22;2.30;;;1.30;;
77821;SDS011;67012;53.712;10.728;2023-05-07T13:42:47;2.17;;;1.63;;
77821;SDS011;67012;53.712;10.728;2023-05-07T13:45:13;1.48;;;1.38;;
77821;SDS011;67012;53.712;10.728;2023-05-07T13:47:39;1.50;;;1.40;;
77821;SDS011;67012;53.712;10.728;2023-05-07T13:50:04;2.05;;;1.73;;
77821;SDS011;67012;53.712;10.728;2023-05-07T13:52:30;2.33;;;1.30;;
77821;SDS011;67012;53.712;10.728;2023-05-07T13:54:55;3.10;;;1.70;;
77821;SDS011;67012;53.712;10.728;2023-05-07T13:57:21;5.75;;;1.83;;
77821;SDS011;67012;53.712;10.728;2023-05-07T13:59:46;1.43;;;1.33;;
77821;SDS011;67012;53.712;10.728;2023-05-07T14:02:11;1.50;;;1.40;;
77821;SDS011;67012;53.712;10.728;2023-05-07T14:04:37;2.17;;;1.43;;
77821;SDS011;67012;53.712;10.728;2023-05-07T14:07:02;2.60;;;1.50;;
77821;SDS011;67012;53.712;10.728;2023-05-07T14:09:27;1.23;;;1.10;;
77821;SDS011;67012;53.712;10.728;2023-05-07T14:11:53;1.30;;;1.20;;
77821;SDS011;67012;53.712;10.728;2023-05-07T14:14:18;1.90;;;1.50;;
77821;SDS011;67012;53.712;10.728;2023-05-07T14:16:43;2.42;;;1.60;;
77821;SDS011;67012;53.712;10.728;2023-05-07T14:19:09;1.40;;;1.30;;
77821;SDS011;67012;53.712;10.728;2023-05-07T14:21:35;1.50;;;1.40;;
77821;SDS011;67012;53.712;10.728;2023-05-07T14:24:00;2.97;;;1.60;;
77821;SDS011;67012;53.712;10.728;2023-05-07T14:26:25;2.15;;;1.63;;
77821;SDS011;67012;53.712;10.728;2023-05-07T14:28:52;2.63;;;1.50;;
77821;SDS011;67012;53.712;10.728;2023-05-07T14:31:17;1.77;;;1.50;;
77821;SDS011;67012;53.712;10.728;2023-05-07T14:33:42;1.50;;;1.40;;
77821;SDS011;67012;53.712;10.728;2023-05-07T14:36:07;1.63;;;1.53;;
77821;SDS011;67012;53.712;10.728;2023-05-07T14:38:33;1.60;;;1.50;;
77821;SDS011;67012;53.712;10.728;2023-05-07T14:40:58;1.60;;;1.33;;
77821;SDS011;67012;53.712;10.728;2023-05-07T14:43:23;1.48;;;1.38;;
77821;SDS011;67012;53.712;10.728;2023-05-07T14:45:48;2.77;;;1.70;;
77821;SDS011;67012;53.712;10.728;2023-05-07T14:48:14;1.40;;;1.30;;
77821;SDS011;67012;53.712;10.728;2023-05-07T14:50:40;2.93;;;1.53;;
77821;SDS011;67012;53.712;10.728;2023-05-07T14:53:06;1.70;;;1.40;;
77821;SDS011;67012;53.712;10.728;2023-05-07T14:55:31;3.13;;;1.57;;
77821;SDS011;67012;53.712;10.728;2023-05-07T14:57:56;1.77;;;1.50;;
77821;SDS011;67012;53.712;10.728;2023-05-07T15:00:21;3.87;;;1.73;;
77821;SDS011;67012;53.712;10.728;2023-05-07T15:02:46;1.57;;;1.37;;
77821;SDS011;67012;53.712;10.728;2023-05-07T15:05:12;1.70;;;1.50;;
77821;SDS011;67012;53.712;10.728;2023-05-07T15:07:38;1.77;;;1.50;;
77821;SDS011;67012;53.712;10.728;2023-05-07T15:10:03;2.60;;;1.37;;
77821;SDS011;67012;53.712;10.728;2023-05-07T15:12:29;2.42;;;1.50;;
77821;SDS011;67012;53.712;10.728;2023-05-07T15:14:54;2.80;;;1.60;;
77821;SDS011;67012;53.712;10.728;2023-05-07T15:17:19;2.23;;;1.50;;
77821;SDS011;67012;53.712;10.728;2023-05-07T15:19:44;2.70;;;1.70;;
77821;SDS011;67012;53.712;10.728;2023-05-07T15:22:09;2.10;;;1.60;;
77821;SDS011;67012;53.712;10.728;2023-05-07T15:24:35;2.10;;;1.80;;
77821;SDS011;67012;53.712;10.728;2023-05-07T15:27:00;2.50;;;1.70;;
77821;SDS011;67012;53.712;10.728;2023-05-07T15:29:27;2.17;;;1.33;;
77821;SDS011;67012;53.712;10.728;2023-05-07T15:31:52;3.17;;;1.70;;
77821;SDS011;67012;53.712;10.728;2023-05-07T15:34:18;4.27;;;2.80;;
77821;SDS011;67012;53.712;10.728;2023-05-07T15:36:43;2.40;;;1.60;;
77821;SDS011;67012;53.712;10.728;2023-05-07T15:39:08;2.47;;;1.67;;
77821;SDS011;67012;53.712;10.728;2023-05-07T15:41:34;2.50;;;1.80;;
77821;SDS011;67012;53.712;10.728;2023-05-07T15:44:01;2.10;;;1.30;;
77821;SDS011;67012;53.712;10.728;2023-05-07T15:46:26;1.70;;;1.60;;
77821;SDS011;67012;53.712;10.728;2023-05-07T15:48:52;2.03;;;1.70;;
77821;SDS011;67012;53.712;10.728;2023-05-07T15:51:17;1.77;;;1.63;;
77821;SDS011;67012;53.712;10.728;2023-05-07T15:53:43;2.10;;;1.63;;
77821;SDS011;67012;53.712;10.728;2023-05-07T15:56:08;3.33;;;2.95;;
77821;SDS011;67012;53.712;10.728;2023-05-07T15:58:34;2.15;;;1.70;;
77821;SDS011;67012;53.712;10.728;2023-05-07T16:01:00;3.72;;;2.15;;
77821;SDS011;67012;53.712;10.728;2023-05-07T16:03:26;3.15;;;2.22;;
77821;SDS011;67012;53.712;10.728;2023-05-07T16:05:51;2.75;;;1.85;;
77821;SDS011;67012;53.712;10.728;2023-05-07T16:08:16;1.97;;;1.57;;
77821;SDS011;67012;53.712;10.728;2023-05-07T16:10:41;1.80;;;1.70;;
77821;SDS011;67012;53.712;10.728;2023-05-07T16:13:07;2.30;;;1.57;;
77821;SDS011;67012;53.712;10.728;2023-05-07T16:15:32;1.70;;;1.60;;
77821;SDS011;67012;53.712;10.728;2023-05-07T16:17:57;2.83;;;2.23;;
77821;SDS011;67012;53.712;10.728;2023-05-07T16:20:26;2.58;;;1.80;;
77821;SDS011;67012;53.712;10.728;2023-05-07T16:22:53;1.90;;;1.60;;
77821;SDS011;67012;53.712;10.728;2023-05-07T16:25:19;3.30;;;1.95;;
77821;SDS011;67012;53.712;10.728;2023-05-07T16:27:44;4.07;;;1.52;;
77821;SDS011;67012;53.712;10.728;2023-05-07T16:30:10;2.33;;;1.50;;
77821;SDS011;67012;53.712;10.728;2023-05-07T16:32:35;2.53;;;2.10;;
77821;SDS011;67012;53.712;10.728;2023-05-07T16:35:00;3.13;;;1.60;;
77821;SDS011;67012;53.712;10.728;2023-05-07T16:37:26;2.83;;;2.07;;
77821;SDS011;67012;53.712;10.728;2023-05-07T16:39:51;1.60;;;1.50;;
77821;SDS011;67012;53.712;10.728;2023-05-07T16:42:16;3.20;;;1.90;;
77821;SDS011;67012;53.712;10.728;2023-05-07T16:44:41;2.70;;;2.40;;
77821;SDS011;67012;53.712;10.728;2023-05-07T16:47:06;3.33;;;2.43;;
77821;SDS011;67012;53.712;10.728;2023-05-07T16:49:32;2.33;;;1.67;;
77821;SDS011;67012;53.712;10.728;2023-05-07T16:51:57;2.83;;;1.40;;
77821;SDS011;67012;53.712;10.728;2023-05-07T16:54:22;1.67;;;1.53;;
